Here is the Quick Look data you requested

The Data originates at the National Weather Service, and is made available here by the UAlbany Department of Atmospheric and Environmental Sciences

Surface Observations

KWWD 220556Z AUTO 28003KT 10SM SCT065 SCT080 28/26 A2988 RMK AO2 SLP120
 T02780256 10322 20272 53005=
KWAL 220554Z AUTO 26005KT 10SM CLR 29/23 A2990 RMK AO2 SLP120 T02890228 10311
 20289 53001=
KDCA 220552Z 01003KT 10SM BKN150 OVC250 26/21 A2989 RMK AO2 SLP121 60000
 T02610206 10328 20261 58001=
KMIV 220554Z AUTO 35004KT 10SM FEW060 27/22 A2987 RMK AO2 SLP113 T02670217
 10317 20261 53008=
KMFV 220555Z AUTO 23004KT 10SM CLR 27/25 A2990 RMK AO2 T02730249 10310 20271=
KORF 220551Z 21005KT 10SM CLR 29/23 A2991 RMK AO2 SLP128 T02940228 10350 20294
 58001 $=
KAKQ 220554Z AUTO 00000KT 10SM CLR 23/22 A2991 RMK AO2 SLP128 T02330217 10294
 20233 58004=
KDOV 220556Z AUTO 30004KT 10SM SCT170 27/21 A2988 RMK AO2 SLP121 T02740207
 10329 20269 53004 $=
KGED 220554Z AUTO 25003KT 10SM CLR 29/26 A2988 RMK AO2 SLP118 T02890256 10339
 20289 53003=
KILG 220551Z AUTO 36004KT 10SM SCT070 27/23 A2988 RMK AO2 SLP118 60007
 T02670228 10322 20250 53005 $=
KADW 220556Z AUTO 00000KT 10SM CLR 26/20 A2989 RMK AO2 SLP125 T02620200 10331
 20254 55001 $=
KBWI 220554Z 20004KT 10SM FEW085 BKN200 OVC250 27/21 A2988 RMK AO2 SLP116
 T02670211 10344 20261 56004=
KDMH 220554Z AUTO 27/21 A2988 RMK AO1 SLP118 T02670211 10356 20267 55000=
KFME 220603Z AUTO 00000KT 10SM CLR 22/21 A2991 RMK AO1=
KHGR 220553Z AUTO 18004KT 10SM CLR 23/23 A2991 RMK AO2 SLP132 60081 T02280228
 10306 20228 53003=
KMTN 220603Z AUTO 18003KT 10SM SCT090 27/22 A2989 RMK AO2=
KNHK 220552Z AUTO 25006KT 10SM CLR 26/22 A2989 RMK AO2 SLP122 T02610222 10328
 20250 53004 $=
KOXB 220553Z AUTO 25006KT 10SM CLR 28/24 A2988 RMK AO2 SLP118 T02830239 10328
 20283 53002=
KSBY 220554Z AUTO 23005KT 10SM CLR 27/24 A2989 RMK AO2 SLP121 T02720239 10317
 20272 53003=